sensor_id;sensor_type;location;lat;lon;timestamp;P1;durP1;ratioP1;P2;durP2;ratioP2
3771;SDS011;1901;48.172;12.824;2023-03-14T00:00:03;6.60;;;4.20;;
3771;SDS011;1901;48.172;12.824;2023-03-14T00:02:31;5.63;;;3.57;;
3771;SDS011;1901;48.172;12.824;2023-03-14T00:04:58;5.90;;;4.80;;
3771;SDS011;1901;48.172;12.824;2023-03-14T00:07:28;6.63;;;5.10;;
3771;SDS011;1901;48.172;12.824;2023-03-14T00:09:58;7.40;;;4.07;;
3771;SDS011;1901;48.172;12.824;2023-03-14T00:12:26;7.70;;;3.60;;
3771;SDS011;1901;48.172;12.824;2023-03-14T00:14:53;4.80;;;3.20;;
3771;SDS011;1901;48.172;12.824;2023-03-14T00:17:20;7.00;;;3.50;;
3771;SDS011;1901;48.172;12.824;2023-03-14T00:19:48;6.07;;;3.50;;
3771;SDS011;1901;48.172;12.824;2023-03-14T00:22:17;6.30;;;3.40;;
3771;SDS011;1901;48.172;12.824;2023-03-14T00:24:45;6.17;;;3.30;;
3771;SDS011;1901;48.172;12.824;2023-03-14T00:27:12;7.10;;;3.40;;
3771;SDS011;1901;48.172;12.824;2023-03-14T00:29:40;5.77;;;3.37;;
3771;SDS011;1901;48.172;12.824;2023-03-14T00:32:09;4.00;;;3.17;;
3771;SDS011;1901;48.172;12.824;2023-03-14T00:34:36;7.63;;;3.40;;
3771;SDS011;1901;48.172;12.824;2023-03-14T00:37:03;4.50;;;2.90;;
3771;SDS011;1901;48.172;12.824;2023-03-14T00:39:30;5.00;;;2.90;;
3771;SDS011;1901;48.172;12.824;2023-03-14T00:41:59;4.17;;;3.10;;
3771;SDS011;1901;48.172;12.824;2023-03-14T00:44:26;6.53;;;3.50;;
3771;SDS011;1901;48.172;12.824;2023-03-14T00:46:53;4.70;;;3.43;;
3771;SDS011;1901;48.172;12.824;2023-03-14T00:49:20;4.30;;;3.37;;
3771;SDS011;1901;48.172;12.824;2023-03-14T00:51:47;3.53;;;2.93;;
3771;SDS011;1901;48.172;12.824;2023-03-14T00:54:14;7.83;;;4.40;;
3771;SDS011;1901;48.172;12.824;2023-03-14T00:56:41;6.67;;;3.50;;
3771;SDS011;1901;48.172;12.824;2023-03-14T00:59:10;8.10;;;4.80;;
3771;SDS011;1901;48.172;12.824;2023-03-14T01:01:37;7.70;;;3.47;;
3771;SDS011;1901;48.172;12.824;2023-03-14T01:04:05;6.70;;;3.50;;
3771;SDS011;1901;48.172;12.824;2023-03-14T01:06:32;5.97;;;4.20;;
3771;SDS011;1901;48.172;12.824;2023-03-14T01:09:00;4.07;;;3.60;;
3771;SDS011;1901;48.172;12.824;2023-03-14T01:11:28;3.70;;;3.13;;
3771;SDS011;1901;48.172;12.824;2023-03-14T01:13:55;5.37;;;3.73;;
3771;SDS011;1901;48.172;12.824;2023-03-14T01:16:25;3.60;;;2.90;;
3771;SDS011;1901;48.172;12.824;2023-03-14T01:18:52;5.03;;;3.07;;
3771;SDS011;1901;48.172;12.824;2023-03-14T01:21:20;5.87;;;3.90;;
3771;SDS011;1901;48.172;12.824;2023-03-14T01:23:48;8.93;;;5.07;;
3771;SDS011;1901;48.172;12.824;2023-03-14T01:26:16;6.33;;;5.40;;
3771;SDS011;1901;48.172;12.824;2023-03-14T01:28:44;9.20;;;4.27;;
3771;SDS011;1901;48.172;12.824;2023-03-14T01:31:11;8.80;;;3.33;;
3771;SDS011;1901;48.172;12.824;2023-03-14T01:33:40;5.00;;;3.80;;
3771;SDS011;1901;48.172;12.824;2023-03-14T01:36:08;6.20;;;3.53;;
3771;SDS011;1901;48.172;12.824;2023-03-14T01:38:36;3.40;;;3.10;;
3771;SDS011;1901;48.172;12.824;2023-03-14T01:41:03;3.90;;;2.83;;
3771;SDS011;1901;48.172;12.824;2023-03-14T01:43:30;2.93;;;2.40;;
3771;SDS011;1901;48.172;12.824;2023-03-14T01:48:47;4.20;;;2.80;;
3771;SDS011;1901;48.172;12.824;2023-03-14T01:51:16;3.30;;;2.77;;
3771;SDS011;1901;48.172;12.824;2023-03-14T01:53:44;2.50;;;2.10;;
3771;SDS011;1901;48.172;12.824;2023-03-14T01:56:13;4.37;;;2.47;;
3771;SDS011;1901;48.172;12.824;2023-03-14T01:58:41;5.43;;;3.60;;
3771;SDS011;1901;48.172;12.824;2023-03-14T02:01:10;7.40;;;3.70;;
3771;SDS011;1901;48.172;12.824;2023-03-14T02:03:38;3.00;;;2.50;;
3771;SDS011;1901;48.172;12.824;2023-03-14T02:06:12;3.63;;;2.50;;
3771;SDS011;1901;48.172;12.824;2023-03-14T02:08:41;3.60;;;2.90;;
3771;SDS011;1901;48.172;12.824;2023-03-14T02:11:12;2.60;;;2.20;;
3771;SDS011;1901;48.172;12.824;2023-03-14T02:13:39;3.93;;;2.73;;
3771;SDS011;1901;48.172;12.824;2023-03-14T02:16:07;4.20;;;2.83;;
3771;SDS011;1901;48.172;12.824;2023-03-14T02:18:34;3.60;;;2.83;;
3771;SDS011;1901;48.172;12.824;2023-03-14T02:21:03;2.83;;;2.30;;
3771;SDS011;1901;48.172;12.824;2023-03-14T02:23:35;3.20;;;2.67;;
3771;SDS011;1901;48.172;12.824;2023-03-14T02:26:05;5.53;;;3.23;;
3771;SDS011;1901;48.172;12.824;2023-03-14T02:28:36;6.00;;;3.37;;
3771;SDS011;1901;48.172;12.824;2023-03-14T02:31:04;5.30;;;2.73;;
3771;SDS011;1901;48.172;12.824;2023-03-14T02:33:31;4.57;;;2.83;;
3771;SDS011;1901;48.172;12.824;2023-03-14T02:35:58;4.33;;;2.40;;
3771;SDS011;1901;48.172;12.824;2023-03-14T02:38:27;3.50;;;2.90;;
3771;SDS011;1901;48.172;12.824;2023-03-14T02:40:56;3.70;;;2.73;;
3771;SDS011;1901;48.172;12.824;2023-03-14T02:43:23;4.07;;;2.93;;
3771;SDS011;1901;48.172;12.824;2023-03-14T02:45:51;3.43;;;2.70;;
3771;SDS011;1901;48.172;12.824;2023-03-14T02:48:20;6.33;;;3.03;;
3771;SDS011;1901;48.172;12.824;2023-03-14T02:50:48;2.77;;;2.30;;
3771;SDS011;1901;48.172;12.824;2023-03-14T02:53:17;2.50;;;1.90;;
3771;SDS011;1901;48.172;12.824;2023-03-14T02:55:45;2.93;;;1.80;;
3771;SDS011;1901;48.172;12.824;2023-03-14T02:58:12;2.87;;;1.50;;
3771;SDS011;1901;48.172;12.824;2023-03-14T03:00:39;2.13;;;1.40;;
3771;SDS011;1901;48.172;12.824;2023-03-14T03:03:08;1.90;;;1.20;;
3771;SDS011;1901;48.172;12.824;2023-03-14T03:05:35;1.57;;;1.10;;
3771;SDS011;1901;48.172;12.824;2023-03-14T03:08:02;3.63;;;1.47;;
3771;SDS011;1901;48.172;12.824;2023-03-14T03:10:29;3.30;;;1.67;;
3771;SDS011;1901;48.172;12.824;2023-03-14T03:12:57;1.70;;;1.20;;
3771;SDS011;1901;48.172;12.824;2023-03-14T03:15:24;2.00;;;1.20;;
3771;SDS011;1901;48.172;12.824;2023-03-14T03:17:51;2.47;;;2.00;;
3771;SDS011;1901;48.172;12.824;2023-03-14T03:20:20;1.60;;;1.20;;
3771;SDS011;1901;48.172;12.824;2023-03-14T03:22:47;1.93;;;1.20;;
3771;SDS011;1901;48.172;12.824;2023-03-14T03:25:15;2.13;;;1.20;;
3771;SDS011;1901;48.172;12.824;2023-03-14T03:27:42;2.93;;;1.20;;
3771;SDS011;1901;48.172;12.824;2023-03-14T03:30:09;2.20;;;1.47;;
3771;SDS011;1901;48.172;12.824;2023-03-14T03:32:37;2.03;;;1.30;;
3771;SDS011;1901;48.172;12.824;2023-03-14T03:35:04;1.97;;;1.20;;
3771;SDS011;1901;48.172;12.824;2023-03-14T03:37:33;2.03;;;1.23;;
3771;SDS011;1901;48.172;12.824;2023-03-14T03:40:00;1.40;;;1.10;;
3771;SDS011;1901;48.172;12.824;2023-03-14T03:42:30;2.23;;;1.17;;
3771;SDS011;1901;48.172;12.824;2023-03-14T03:44:57;1.67;;;1.13;;
3771;SDS011;1901;48.172;12.824;2023-03-14T03:47:24;1.40;;;1.00;;
3771;SDS011;1901;48.172;12.824;2023-03-14T03:49:51;1.87;;;1.13;;
3771;SDS011;1901;48.172;12.824;2023-03-14T03:52:18;2.63;;;1.20;;
3771;SDS011;1901;48.172;12.824;2023-03-14T03:54:47;2.70;;;1.10;;
3771;SDS011;1901;48.172;12.824;2023-03-14T03:57:14;2.70;;;1.53;;
3771;SDS011;1901;48.172;12.824;2023-03-14T03:59:41;2.93;;;1.27;;
3771;SDS011;1901;48.172;12.824;2023-03-14T04:02:08;2.47;;;1.47;;
3771;SDS011;1901;48.172;12.824;2023-03-14T04:04:35;4.90;;;2.27;;
3771;SDS011;1901;48.172;12.824;2023-03-14T04:07:03;3.73;;;1.43;;
3771;SDS011;1901;48.172;12.824;2023-03-14T04:09:30;3.30;;;1.40;;
3771;SDS011;1901;48.172;12.824;2023-03-14T04:11:59;2.33;;;1.33;;
3771;SDS011;1901;48.172;12.824;2023-03-14T04:14:26;2.37;;;1.40;;
3771;SDS011;1901;48.172;12.824;2023-03-14T04:16:53;1.87;;;1.40;;
3771;SDS011;1901;48.172;12.824;2023-03-14T04:19:20;2.10;;;1.00;;
3771;SDS011;1901;48.172;12.824;2023-03-14T04:21:47;1.90;;;1.37;;
3771;SDS011;1901;48.172;12.824;2023-03-14T04:24:15;1.50;;;1.17;;
3771;SDS011;1901;48.172;12.824;2023-03-14T04:26:42;1.87;;;1.30;;
3771;SDS011;1901;48.172;12.824;2023-03-14T04:29:10;1.90;;;1.50;;
3771;SDS011;1901;48.172;12.824;2023-03-14T04:31:37;2.30;;;1.40;;
3771;SDS011;1901;48.172;12.824;2023-03-14T04:34:04;3.60;;;1.90;;
3771;SDS011;1901;48.172;12.824;2023-03-14T04:36:31;1.90;;;1.63;;
3771;SDS011;1901;48.172;12.824;2023-03-14T04:38:59;3.17;;;2.20;;
3771;SDS011;1901;48.172;12.824;2023-03-14T04:41:26;2.83;;;1.67;;
3771;SDS011;1901;48.172;12.824;2023-03-14T04:43:53;1.80;;;1.50;;
3771;SDS011;1901;48.172;12.824;2023-03-14T04:46:21;1.93;;;1.50;;
3771;SDS011;1901;48.172;12.824;2023-03-14T04:48:48;3.93;;;2.10;;
3771;SDS011;1901;48.172;12.824;2023-03-14T04:51:15;2.57;;;2.10;;
3771;SDS011;1901;48.172;12.824;2023-03-14T04:53:42;4.33;;;3.17;;
3771;SDS011;1901;48.172;12.824;2023-03-14T04:56:10;3.13;;;2.20;;
3771;SDS011;1901;48.172;12.824;2023-03-14T04:58:37;2.70;;;1.83;;
3771;SDS011;1901;48.172;12.824;2023-03-14T05:01:05;4.00;;;2.83;;
3771;SDS011;1901;48.172;12.824;2023-03-14T05:03:33;2.60;;;2.10;;
3771;SDS011;1901;48.172;12.824;2023-03-14T05:06:03;2.70;;;1.40;;
3771;SDS011;1901;48.172;12.824;2023-03-14T05:08:30;3.53;;;2.07;;
3771;SDS011;1901;48.172;12.824;2023-03-14T05:10:57;2.63;;;1.50;;
3771;SDS011;1901;48.172;12.824;2023-03-14T05:13:25;2.57;;;1.50;;
3771;SDS011;1901;48.172;12.824;2023-03-14T05:15:52;2.50;;;1.60;;
3771;SDS011;1901;48.172;12.824;2023-03-14T05:18:20;2.33;;;1.67;;
3771;SDS011;1901;48.172;12.824;2023-03-14T05:20:51;3.53;;;2.07;;
3771;SDS011;1901;48.172;12.824;2023-03-14T05:23:21;4.20;;;2.60;;
3771;SDS011;1901;48.172;12.824;2023-03-14T05:25:49;5.83;;;3.43;;
3771;SDS011;1901;48.172;12.824;2023-03-14T05:28:16;3.67;;;3.30;;
3771;SDS011;1901;48.172;12.824;2023-03-14T05:30:43;2.80;;;2.00;;
3771;SDS011;1901;48.172;12.824;2023-03-14T05:33:10;2.80;;;1.80;;
3771;SDS011;1901;48.172;12.824;2023-03-14T05:35:37;4.00;;;2.40;;
3771;SDS011;1901;48.172;12.824;2023-03-14T05:38:05;3.67;;;2.90;;
3771;SDS011;1901;48.172;12.824;2023-03-14T05:40:33;2.03;;;1.80;;
3771;SDS011;1901;48.172;12.824;2023-03-14T05:43:01;1.60;;;1.20;;
3771;SDS011;1901;48.172;12.824;2023-03-14T05:45:28;2.60;;;1.60;;
3771;SDS011;1901;48.172;12.824;2023-03-14T05:47:55;13.20;;;6.87;;
3771;SDS011;1901;48.172;12.824;2023-03-14T05:50:22;13.80;;;6.87;;
3771;SDS011;1901;48.172;12.824;2023-03-14T05:52:49;5.37;;;3.00;;
3771;SDS011;1901;48.172;12.824;2023-03-14T05:55:17;3.90;;;3.00;;
3771;SDS011;1901;48.172;12.824;2023-03-14T05:57:45;3.00;;;2.37;;
3771;SDS011;1901;48.172;12.824;2023-03-14T06:00:12;2.87;;;2.00;;
3771;SDS011;1901;48.172;12.824;2023-03-14T06:02:39;4.00;;;2.97;;
3771;SDS011;1901;48.172;12.824;2023-03-14T06:05:07;2.10;;;1.60;;
3771;SDS011;1901;48.172;12.824;2023-03-14T06:07:34;4.83;;;2.50;;
3771;SDS011;1901;48.172;12.824;2023-03-14T06:10:01;4.00;;;3.20;;
3771;SDS011;1901;48.172;12.824;2023-03-14T06:12:30;4.57;;;3.37;;
3771;SDS011;1901;48.172;12.824;2023-03-14T06:14:57;3.70;;;2.70;;
3771;SDS011;1901;48.172;12.824;2023-03-14T06:17:24;5.13;;;4.20;;
3771;SDS011;1901;48.172;12.824;2023-03-14T06:19:51;23.83;;;15.07;;
3771;SDS011;1901;48.172;12.824;2023-03-14T06:22:18;13.93;;;10.10;;
3771;SDS011;1901;48.172;12.824;2023-03-14T06:24:45;18.27;;;12.43;;
3771;SDS011;1901;48.172;12.824;2023-03-14T06:27:13;29.03;;;14.20;;
3771;SDS011;1901;48.172;12.824;2023-03-14T06:29:41;33.77;;;17.10;;
3771;SDS011;1901;48.172;12.824;2023-03-14T06:32:08;15.63;;;9.60;;
3771;SDS011;1901;48.172;12.824;2023-03-14T06:34:35;4.37;;;3.07;;
3771;SDS011;1901;48.172;12.824;2023-03-14T06:37:03;6.43;;;1.90;;
3771;SDS011;1901;48.172;12.824;2023-03-14T06:39:30;2.80;;;2.40;;
3771;SDS011;1901;48.172;12.824;2023-03-14T06:41:57;3.97;;;2.17;;
3771;SDS011;1901;48.172;12.824;2023-03-14T06:44:25;4.87;;;2.30;;
3771;SDS011;1901;48.172;12.824;2023-03-14T06:46:53;4.03;;;3.00;;
3771;SDS011;1901;48.172;12.824;2023-03-14T06:49:20;4.57;;;2.63;;
3771;SDS011;1901;48.172;12.824;2023-03-14T06:51:47;2.77;;;2.30;;
3771;SDS011;1901;48.172;12.824;2023-03-14T06:54:14;2.60;;;2.20;;
3771;SDS011;1901;48.172;12.824;2023-03-14T06:56:41;3.87;;;1.90;;
3771;SDS011;1901;48.172;12.824;2023-03-14T06:59:09;4.40;;;2.97;;
3771;SDS011;1901;48.172;12.824;2023-03-14T07:01:36;6.23;;;3.97;;
3771;SDS011;1901;48.172;12.824;2023-03-14T07:04:04;3.43;;;2.60;;
3771;SDS011;1901;48.172;12.824;2023-03-14T07:06:32;3.50;;;2.20;;
3771;SDS011;1901;48.172;12.824;2023-03-14T07:08:59;3.53;;;2.60;;
3771;SDS011;1901;48.172;12.824;2023-03-14T07:11:27;2.80;;;2.27;;
3771;SDS011;1901;48.172;12.824;2023-03-14T07:13:54;6.80;;;2.50;;
3771;SDS011;1901;48.172;12.824;2023-03-14T07:16:21;2.37;;;2.03;;
3771;SDS011;1901;48.172;12.824;2023-03-14T07:18:48;3.03;;;2.00;;
3771;SDS011;1901;48.172;12.824;2023-03-14T07:21:16;7.07;;;2.50;;
3771;SDS011;1901;48.172;12.824;2023-03-14T07:23:44;3.70;;;2.30;;
3771;SDS011;1901;48.172;12.824;2023-03-14T07:26:11;3.20;;;2.23;;
3771;SDS011;1901;48.172;12.824;2023-03-14T07:28:38;2.80;;;2.30;;
3771;SDS011;1901;48.172;12.824;2023-03-14T07:31:05;3.00;;;1.93;;
3771;SDS011;1901;48.172;12.824;2023-03-14T07:33:32;2.73;;;1.77;;
3771;SDS011;1901;48.172;12.824;2023-03-14T07:36:00;2.53;;;2.10;;
3771;SDS011;1901;48.172;12.824;2023-03-14T07:38:28;1.97;;;1.67;;
3771;SDS011;1901;48.172;12.824;2023-03-14T07:40:59;2.47;;;1.87;;
3771;SDS011;1901;48.172;12.824;2023-03-14T07:43:26;3.50;;;2.20;;
3771;SDS011;1901;48.172;12.824;2023-03-14T07:45:53;2.77;;;2.00;;
3771;SDS011;1901;48.172;12.824;2023-03-14T07:48:21;4.60;;;1.97;;
3771;SDS011;1901;48.172;12.824;2023-03-14T07:50:50;5.30;;;1.83;;
3771;SDS011;1901;48.172;12.824;2023-03-14T07:53:17;2.10;;;1.30;;
3771;SDS011;1901;48.172;12.824;2023-03-14T07:55:46;2.50;;;1.40;;
3771;SDS011;1901;48.172;12.824;2023-03-14T07:58:13;3.30;;;2.20;;
3771;SDS011;1901;48.172;12.824;2023-03-14T08:00:41;3.70;;;1.70;;
3771;SDS011;1901;48.172;12.824;2023-03-14T08:03:08;4.70;;;2.73;;
3771;SDS011;1901;48.172;12.824;2023-03-14T08:05:36;2.73;;;2.10;;
3771;SDS011;1901;48.172;12.824;2023-03-14T08:08:03;1.63;;;1.23;;
3771;SDS011;1901;48.172;12.824;2023-03-14T08:10:31;2.47;;;2.07;;
3771;SDS011;1901;48.172;12.824;2023-03-14T08:13:00;2.40;;;1.83;;
3771;SDS011;1901;48.172;12.824;2023-03-14T08:15:28;3.27;;;2.40;;
3771;SDS011;1901;48.172;12.824;2023-03-14T08:17:55;6.23;;;1.97;;
3771;SDS011;1901;48.172;12.824;2023-03-14T08:20:23;1.57;;;1.30;;
3771;SDS011;1901;48.172;12.824;2023-03-14T08:22:50;1.60;;;1.20;;
3771;SDS011;1901;48.172;12.824;2023-03-14T08:25:18;3.03;;;1.30;;
3771;SDS011;1901;48.172;12.824;2023-03-14T08:27:45;1.93;;;1.40;;
3771;SDS011;1901;48.172;12.824;2023-03-14T08:30:14;2.63;;;2.10;;
3771;SDS011;1901;48.172;12.824;2023-03-14T08:32:42;2.63;;;1.33;;
3771;SDS011;1901;48.172;12.824;2023-03-14T08:35:09;3.80;;;2.10;;
3771;SDS011;1901;48.172;12.824;2023-03-14T08:37:37;2.97;;;2.20;;
3771;SDS011;1901;48.172;12.824;2023-03-14T08:40:04;2.50;;;1.73;;
3771;SDS011;1901;48.172;12.824;2023-03-14T08:42:35;1.80;;;1.30;;
3771;SDS011;1901;48.172;12.824;2023-03-14T08:45:02;2.47;;;1.40;;
3771;SDS011;1901;48.172;12.824;2023-03-14T08:47:31;1.80;;;1.50;;
3771;SDS011;1901;48.172;12.824;2023-03-14T08:49:58;1.93;;;1.73;;
3771;SDS011;1901;48.172;12.824;2023-03-14T08:52:25;2.33;;;1.53;;
3771;SDS011;1901;48.172;12.824;2023-03-14T08:54:52;1.67;;;1.40;;
3771;SDS011;1901;48.172;12.824;2023-03-14T08:57:20;1.80;;;1.40;;
3771;SDS011;1901;48.172;12.824;2023-03-14T08:59:52;5.67;;;1.53;;
3771;SDS011;1901;48.172;12.824;2023-03-14T09:02:20;1.90;;;1.27;;
3771;SDS011;1901;48.172;12.824;2023-03-14T09:04:49;2.47;;;1.20;;
3771;SDS011;1901;48.172;12.824;2023-03-14T09:07:16;2.20;;;1.43;;
3771;SDS011;1901;48.172;12.824;2023-03-14T09:09:43;2.70;;;1.40;;
3771;SDS011;1901;48.172;12.824;2023-03-14T09:12:10;3.03;;;2.10;;
3771;SDS011;1901;48.172;12.824;2023-03-14T09:14:38;5.00;;;2.77;;
3771;SDS011;1901;48.172;12.824;2023-03-14T09:17:05;3.57;;;3.10;;
3771;SDS011;1901;48.172;12.824;2023-03-14T09:19:32;7.00;;;2.30;;
3771;SDS011;1901;48.172;12.824;2023-03-14T09:22:01;2.30;;;1.83;;
3771;SDS011;1901;48.172;12.824;2023-03-14T09:24:28;4.13;;;1.90;;
3771;SDS011;1901;48.172;12.824;2023-03-14T09:26:56;3.37;;;2.23;;
3771;SDS011;1901;48.172;12.824;2023-03-14T09:29:23;2.20;;;2.00;;
3771;SDS011;1901;48.172;12.824;2023-03-14T09:31:50;4.10;;;2.40;;
3771;SDS011;1901;48.172;12.824;2023-03-14T09:34:17;7.20;;;5.27;;
3771;SDS011;1901;48.172;12.824;2023-03-14T09:36:44;17.10;;;12.00;;
3771;SDS011;1901;48.172;12.824;2023-03-14T09:39:13;5.00;;;3.00;;
3771;SDS011;1901;48.172;12.824;2023-03-14T09:41:42;6.77;;;2.53;;
3771;SDS011;1901;48.172;12.824;2023-03-14T09:44:10;3.30;;;2.27;;
3771;SDS011;1901;48.172;12.824;2023-03-14T09:46:40;2.80;;;2.00;;
3771;SDS011;1901;48.172;12.824;2023-03-14T09:49:09;3.37;;;2.00;;
3771;SDS011;1901;48.172;12.824;2023-03-14T09:51:38;23.13;;;15.27;;
3771;SDS011;1901;48.172;12.824;2023-03-14T09:54:05;3.03;;;2.43;;
3771;SDS011;1901;48.172;12.824;2023-03-14T09:56:36;2.53;;;1.70;;
3771;SDS011;1901;48.172;12.824;2023-03-14T09:59:04;2.20;;;1.20;;
3771;SDS011;1901;48.172;12.824;2023-03-14T10:01:32;2.07;;;1.20;;
3771;SDS011;1901;48.172;12.824;2023-03-14T10:04:00;2.47;;;1.50;;
3771;SDS011;1901;48.172;12.824;2023-03-14T10:06:29;1.73;;;1.17;;
3771;SDS011;1901;48.172;12.824;2023-03-14T10:08:57;1.50;;;1.10;;
3771;SDS011;1901;48.172;12.824;2023-03-14T10:11:24;1.97;;;1.50;;
3771;SDS011;1901;48.172;12.824;2023-03-14T10:16:45;2.67;;;2.00;;
3771;SDS011;1901;48.172;12.824;2023-03-14T10:19:13;3.20;;;2.30;;
3771;SDS011;1901;48.172;12.824;2023-03-14T10:21:41;3.03;;;1.80;;
3771;SDS011;1901;48.172;12.824;2023-03-14T10:24:10;2.37;;;1.77;;
3771;SDS011;1901;48.172;12.824;2023-03-14T10:26:43;2.23;;;1.70;;
3771;SDS011;1901;48.172;12.824;2023-03-14T10:29:11;2.60;;;1.90;;
3771;SDS011;1901;48.172;12.824;2023-03-14T10:31:50;2.20;;;1.40;;
3771;SDS011;1901;48.172;12.824;2023-03-14T10:34:20;3.07;;;2.10;;
3771;SDS011;1901;48.172;12.824;2023-03-14T10:36:51;3.90;;;3.30;;
3771;SDS011;1901;48.172;12.824;2023-03-14T10:39:24;4.17;;;2.03;;
3771;SDS011;1901;48.172;12.824;2023-03-14T10:41:52;2.00;;;1.37;;
3771;SDS011;1901;48.172;12.824;2023-03-14T10:44:22;2.83;;;1.67;;
3771;SDS011;1901;48.172;12.824;2023-03-14T10:46:56;2.33;;;1.63;;
3771;SDS011;1901;48.172;12.824;2023-03-14T10:49:27;13.10;;;2.00;;
3771;SDS011;1901;48.172;12.824;2023-03-14T10:51:55;3.10;;;2.27;;
3771;SDS011;1901;48.172;12.824;2023-03-14T10:54:22;3.53;;;2.10;;
3771;SDS011;1901;48.172;12.824;2023-03-14T10:56:56;3.00;;;1.93;;
3771;SDS011;1901;48.172;12.824;2023-03-14T10:59:24;2.10;;;1.63;;
3771;SDS011;1901;48.172;12.824;2023-03-14T11:01:54;2.93;;;2.10;;
3771;SDS011;1901;48.172;12.824;2023-03-14T11:04:38;8.30;;;2.23;;
3771;SDS011;1901;48.172;12.824;2023-03-14T11:07:11;6.63;;;2.10;;
3771;SDS011;1901;48.172;12.824;2023-03-14T11:09:41;3.63;;;2.40;;
3771;SDS011;1901;48.172;12.824;2023-03-14T11:12:14;2.30;;;1.50;;
3771;SDS011;1901;48.172;12.824;2023-03-14T11:14:48;2.80;;;1.63;;
3771;SDS011;1901;48.172;12.824;2023-03-14T11:17:19;3.30;;;1.67;;
3771;SDS011;1901;48.172;12.824;2023-03-14T11:19:52;1.50;;;1.20;;
3771;SDS011;1901;48.172;12.824;2023-03-14T11:22:21;2.40;;;1.73;;
3771;SDS011;1901;48.172;12.824;2023-03-14T11:24:53;3.10;;;1.93;;
3771;SDS011;1901;48.172;12.824;2023-03-14T11:27:25;3.70;;;2.20;;
3771;SDS011;1901;48.172;12.824;2023-03-14T11:29:54;5.00;;;2.27;;
3771;SDS011;1901;48.172;12.824;2023-03-14T11:32:32;5.37;;;2.60;;
3771;SDS011;1901;48.172;12.824;2023-03-14T11:35:04;6.37;;;2.40;;
3771;SDS011;1901;48.172;12.824;2023-03-14T11:37:36;3.00;;;2.10;;
3771;SDS011;1901;48.172;12.824;2023-03-14T11:40:08;5.87;;;2.90;;
3771;SDS011;1901;48.172;12.824;2023-03-14T11:42:38;4.60;;;3.23;;
3771;SDS011;1901;48.172;12.824;2023-03-14T11:45:10;2.93;;;2.73;;
3771;SDS011;1901;48.172;12.824;2023-03-14T11:47:40;3.43;;;1.87;;
3771;SDS011;1901;48.172;12.824;2023-03-14T11:50:12;2.13;;;1.40;;
3771;SDS011;1901;48.172;12.824;2023-03-14T11:52:42;1.90;;;1.43;;
3771;SDS011;1901;48.172;12.824;2023-03-14T11:55:11;3.07;;;1.80;;
3771;SDS011;1901;48.172;12.824;2023-03-14T11:57:39;2.23;;;1.60;;
3771;SDS011;1901;48.172;12.824;2023-03-14T12:00:12;1.97;;;1.40;;
3771;SDS011;1901;48.172;12.824;2023-03-14T12:02:43;2.40;;;1.70;;
3771;SDS011;1901;48.172;12.824;2023-03-14T12:05:23;2.00;;;1.47;;
3771;SDS011;1901;48.172;12.824;2023-03-14T12:08:01;2.50;;;1.17;;
3771;SDS011;1901;48.172;12.824;2023-03-14T12:10:30;2.50;;;1.60;;
3771;SDS011;1901;48.172;12.824;2023-03-14T12:13:03;1.70;;;1.20;;
3771;SDS011;1901;48.172;12.824;2023-03-14T12:15:30;1.73;;;1.20;;
3771;SDS011;1901;48.172;12.824;2023-03-14T12:17:59;1.90;;;1.30;;
3771;SDS011;1901;48.172;12.824;2023-03-14T12:20:28;2.23;;;1.10;;
3771;SDS011;1901;48.172;12.824;2023-03-14T12:22:55;1.70;;;1.20;;
3771;SDS011;1901;48.172;12.824;2023-03-14T12:25:23;1.60;;;1.27;;
3771;SDS011;1901;48.172;12.824;2023-03-14T12:30:34;2.10;;;1.27;;
3771;SDS011;1901;48.172;12.824;2023-03-14T12:33:11;1.77;;;1.17;;
3771;SDS011;1901;48.172;12.824;2023-03-14T12:35:40;1.50;;;1.00;;
3771;SDS011;1901;48.172;12.824;2023-03-14T12:38:09;1.70;;;1.13;;
3771;SDS011;1901;48.172;12.824;2023-03-14T12:40:37;1.70;;;1.20;;
3771;SDS011;1901;48.172;12.824;2023-03-14T12:43:10;6.13;;;1.20;;
3771;SDS011;1901;48.172;12.824;2023-03-14T12:48:32;3.93;;;2.80;;
3771;SDS011;1901;48.172;12.824;2023-03-14T12:51:02;2.33;;;1.70;;
3771;SDS011;1901;48.172;12.824;2023-03-14T12:56:18;1.70;;;1.20;;
3771;SDS011;1901;48.172;12.824;2023-03-14T12:58:47;1.97;;;1.07;;
3771;SDS011;1901;48.172;12.824;2023-03-14T13:01:18;1.60;;;1.10;;
3771;SDS011;1901;48.172;12.824;2023-03-14T13:03:47;1.57;;;1.10;;
3771;SDS011;1901;48.172;12.824;2023-03-14T13:08:58;2.40;;;1.30;;
3771;SDS011;1901;48.172;12.824;2023-03-14T13:11:25;1.90;;;1.30;;
3771;SDS011;1901;48.172;12.824;2023-03-14T13:13:56;1.47;;;1.20;;
3771;SDS011;1901;48.172;12.824;2023-03-14T13:16:24;2.00;;;1.00;;
3771;SDS011;1901;48.172;12.824;2023-03-14T13:18:58;1.43;;;1.10;;
3771;SDS011;1901;48.172;12.824;2023-03-14T13:21:27;1.83;;;1.10;;
3771;SDS011;1901;48.172;12.824;2023-03-14T13:23:56;1.53;;;0.90;;
3771;SDS011;1901;48.172;12.824;2023-03-14T13:26:26;2.80;;;1.20;;
3771;SDS011;1901;48.172;12.824;2023-03-14T13:28:59;1.60;;;1.00;;
3771;SDS011;1901;48.172;12.824;2023-03-14T13:31:26;1.47;;;0.90;;
3771;SDS011;1901;48.172;12.824;2023-03-14T13:33:59;1.50;;;0.90;;
3771;SDS011;1901;48.172;12.824;2023-03-14T13:36:26;1.73;;;1.20;;
3771;SDS011;1901;48.172;12.824;2023-03-14T13:38:56;1.33;;;0.83;;
3771;SDS011;1901;48.172;12.824;2023-03-14T13:41:24;2.17;;;1.60;;
3771;SDS011;1901;48.172;12.824;2023-03-14T13:43:52;4.20;;;1.60;;
3771;SDS011;1901;48.172;12.824;2023-03-14T13:46:24;3.70;;;1.20;;
3771;SDS011;1901;48.172;12.824;2023-03-14T13:48:52;1.70;;;1.20;;
3771;SDS011;1901;48.172;12.824;2023-03-14T13:51:20;1.90;;;1.40;;
3771;SDS011;1901;48.172;12.824;2023-03-14T13:53:48;3.03;;;1.93;;
3771;SDS011;1901;48.172;12.824;2023-03-14T13:56:16;3.10;;;2.20;;
3771;SDS011;1901;48.172;12.824;2023-03-14T13:58:44;2.77;;;1.40;;
3771;SDS011;1901;48.172;12.824;2023-03-14T14:01:14;13.90;;;3.40;;
3771;SDS011;1901;48.172;12.824;2023-03-14T14:03:42;5.37;;;3.30;;
3771;SDS011;1901;48.172;12.824;2023-03-14T14:06:16;2.67;;;1.70;;
3771;SDS011;1901;48.172;12.824;2023-03-14T14:08:45;4.47;;;1.93;;
3771;SDS011;1901;48.172;12.824;2023-03-14T14:11:15;4.70;;;2.67;;
3771;SDS011;1901;48.172;12.824;2023-03-14T14:13:44;2.27;;;1.50;;
3771;SDS011;1901;48.172;12.824;2023-03-14T14:16:13;2.97;;;2.20;;
3771;SDS011;1901;48.172;12.824;2023-03-14T14:18:42;3.40;;;2.27;;
3771;SDS011;1901;48.172;12.824;2023-03-14T14:21:09;1.70;;;1.20;;
3771;SDS011;1901;48.172;12.824;2023-03-14T14:23:38;2.43;;;1.40;;
3771;SDS011;1901;48.172;12.824;2023-03-14T14:26:05;3.10;;;1.60;;
3771;SDS011;1901;48.172;12.824;2023-03-14T14:28:34;1.90;;;1.50;;
3771;SDS011;1901;48.172;12.824;2023-03-14T14:31:04;3.13;;;2.17;;
3771;SDS011;1901;48.172;12.824;2023-03-14T14:33:40;6.07;;;3.70;;
3771;SDS011;1901;48.172;12.824;2023-03-14T14:36:17;5.70;;;4.00;;
3771;SDS011;1901;48.172;12.824;2023-03-14T14:38:56;3.37;;;3.00;;
3771;SDS011;1901;48.172;12.824;2023-03-14T14:41:26;3.00;;;1.70;;
3771;SDS011;1901;48.172;12.824;2023-03-14T14:43:53;2.80;;;2.40;;
3771;SDS011;1901;48.172;12.824;2023-03-14T14:46:20;2.70;;;2.30;;
3771;SDS011;1901;48.172;12.824;2023-03-14T14:48:50;4.50;;;2.23;;
3771;SDS011;1901;48.172;12.824;2023-03-14T14:51:22;4.57;;;2.53;;
3771;SDS011;1901;48.172;12.824;2023-03-14T14:53:59;5.63;;;3.70;;
3771;SDS011;1901;48.172;12.824;2023-03-14T14:56:27;3.30;;;2.20;;
3771;SDS011;1901;48.172;12.824;2023-03-14T14:58:56;2.20;;;1.60;;
3771;SDS011;1901;48.172;12.824;2023-03-14T15:01:25;2.63;;;1.87;;
3771;SDS011;1901;48.172;12.824;2023-03-14T15:03:56;2.70;;;2.13;;
3771;SDS011;1901;48.172;12.824;2023-03-14T15:06:24;6.30;;;4.10;;
3771;SDS011;1901;48.172;12.824;2023-03-14T15:08:53;4.23;;;2.00;;
3771;SDS011;1901;48.172;12.824;2023-03-14T15:11:20;2.40;;;1.10;;
3771;SDS011;1901;48.172;12.824;2023-03-14T15:13:48;10.50;;;1.43;;
3771;SDS011;1901;48.172;12.824;2023-03-14T15:16:17;2.03;;;1.30;;
3771;SDS011;1901;48.172;12.824;2023-03-14T15:18:44;2.53;;;1.80;;
3771;SDS011;1901;48.172;12.824;2023-03-14T15:21:14;1.50;;;1.20;;
3771;SDS011;1901;48.172;12.824;2023-03-14T15:23:41;1.50;;;1.10;;